createdAt,value
2017-10-21T00:01:05.589Z,0
2017-10-21T00:02:16.068Z,0
2017-10-21T00:03:26.555Z,0
2017-10-21T00:04:37.034Z,0
2017-10-21T00:05:47.494Z,0
2017-10-21T00:06:57.651Z,0
2017-10-21T00:08:08.155Z,0
2017-10-21T00:09:18.663Z,0
2017-10-21T00:10:29.115Z,0
2017-10-21T00:11:39.564Z,0
2017-10-21T00:12:50.026Z,0
2017-10-21T00:14:00.158Z,0
2017-10-21T00:15:10.280Z,0
2017-10-21T00:16:20.764Z,0
2017-10-21T00:17:31.317Z,0
2017-10-21T00:18:41.751Z,0
2017-10-21T00:19:52.232Z,0
2017-10-21T00:21:02.702Z,0
2017-10-21T00:22:13.185Z,0
2017-10-21T00:23:23.663Z,0
2017-10-21T00:24:34.159Z,0
2017-10-21T00:25:44.609Z,0
2017-10-21T00:26:54.652Z,0
2017-10-21T00:28:05.126Z,0
2017-10-21T00:29:15.573Z,0
2017-10-21T00:30:25.735Z,0
2017-10-21T00:31:36.200Z,0
2017-10-21T00:32:46.262Z,0
2017-10-21T00:33:56.740Z,0
2017-10-21T00:35:07.305Z,0
2017-10-21T00:36:17.779Z,0
2017-10-21T00:37:28.248Z,0
2017-10-21T00:38:38.711Z,0
2017-10-21T00:39:48.905Z,0
2017-10-21T00:40:59.457Z,0
2017-10-21T00:42:09.591Z,0
2017-10-21T00:43:20.106Z,0
2017-10-21T00:44:30.577Z,0
2017-10-21T00:45:41.093Z,0
2017-10-21T00:46:51.246Z,0
2017-10-21T00:48:01.717Z,0
2017-10-21T00:49:12.202Z,0
2017-10-21T00:50:22.668Z,0
2017-10-21T00:51:33.123Z,0
2017-10-21T00:52:43.582Z,0
2017-10-21T00:53:54.178Z,0
2017-10-21T00:55:04.659Z,0
2017-10-21T00:56:15.204Z,0
2017-10-21T00:57:25.676Z,0
2017-10-21T00:58:36.151Z,0
2017-10-21T00:59:46.652Z,0
2017-10-21T01:00:57.383Z,0
2017-10-21T01:02:07.841Z,0
2017-10-21T01:03:18.325Z,0
2017-10-21T01:04:28.780Z,0
2017-10-21T01:05:39.286Z,0
2017-10-21T01:06:49.743Z,0
2017-10-21T01:08:00.222Z,0
2017-10-21T01:09:10.722Z,0
2017-10-21T01:10:21.237Z,0
2017-10-21T01:11:31.774Z,0
2017-10-21T01:12:42.282Z,0
2017-10-21T01:13:52.779Z,0
2017-10-21T01:15:03.248Z,0
2017-10-21T01:16:13.709Z,0
2017-10-21T01:17:24.137Z,0
2017-10-21T01:18:34.662Z,0
2017-10-21T01:19:45.327Z,0
2017-10-21T01:20:55.800Z,0
2017-10-21T01:22:06.279Z,0
2017-10-21T01:23:16.744Z,0
2017-10-21T01:24:27.321Z,0
2017-10-21T01:25:37.832Z,0
2017-10-21T01:26:48.267Z,0
2017-10-21T01:27:58.727Z,0
2017-10-21T01:29:09.525Z,0
2017-10-21T01:30:20.004Z,0
2017-10-21T01:31:31.512Z,0
2017-10-21T01:32:42.181Z,0
2017-10-21T01:33:52.654Z,0
2017-10-21T01:35:03.148Z,0
2017-10-21T01:36:13.681Z,0
2017-10-21T01:37:24.194Z,0
2017-10-21T01:38:34.642Z,0
2017-10-21T01:39:45.143Z,0
2017-10-21T01:40:55.638Z,0
2017-10-21T01:42:06.073Z,0
2017-10-21T01:43:16.562Z,0
2017-10-21T01:44:27.034Z,0
2017-10-21T01:45:37.520Z,0
2017-10-21T01:46:48.942Z,0
2017-10-21T01:47:59.563Z,0
2017-10-21T01:49:10.137Z,0
2017-10-21T01:50:20.593Z,0
2017-10-21T01:51:31.082Z,0
2017-10-21T01:52:41.540Z,0
2017-10-21T01:53:52.046Z,0
2017-10-21T01:55:02.707Z,0
2017-10-21T01:56:12.865Z,0
2017-10-21T01:57:23.354Z,0
2017-10-21T01:58:33.829Z,0
2017-10-21T01:59:44.301Z,0
2017-10-21T02:00:54.802Z,0
2017-10-21T02:02:05.256Z,0
2017-10-21T02:03:15.771Z,0
2017-10-21T02:04:26.280Z,0
2017-10-21T02:05:36.488Z,0
2017-10-21T02:06:46.960Z,0
2017-10-21T02:07:57.726Z,0
2017-10-21T02:09:08.205Z,0
2017-10-21T02:10:18.315Z,0
2017-10-21T02:11:28.888Z,0
2017-10-21T02:12:39.401Z,0
2017-10-21T02:13:49.855Z,0
2017-10-21T02:15:00.418Z,0
2017-10-21T02:16:10.887Z,0
2017-10-21T02:17:21.043Z,0
2017-10-21T02:18:31.515Z,0
2017-10-21T02:19:42.199Z,0
2017-10-21T02:20:52.648Z,0
2017-10-21T02:22:03.143Z,0
2017-10-21T02:23:13.615Z,0
2017-10-21T02:24:24.132Z,0
2017-10-21T02:25:34.528Z,0
2017-10-21T02:26:45.238Z,0
2017-10-21T02:27:55.707Z,0
2017-10-21T02:29:06.161Z,0
2017-10-21T02:30:16.381Z,0
2017-10-21T02:31:27.055Z,0
2017-10-21T02:32:37.606Z,0
2017-10-21T02:33:48.320Z,0
2017-10-21T02:34:58.773Z,0
2017-10-21T02:36:09.589Z,0
2017-10-21T02:37:20.025Z,0
2017-10-21T02:38:30.824Z,0
2017-10-21T02:39:41.390Z,0
2017-10-21T02:40:51.942Z,0
2017-10-21T02:42:02.394Z,0
2017-10-21T02:43:12.889Z,0
2017-10-21T02:44:23.007Z,0
2017-10-21T02:45:33.463Z,0
2017-10-21T02:46:43.933Z,0
2017-10-21T02:47:54.454Z,0
2017-10-21T02:49:04.471Z,0
2017-10-21T02:50:15.006Z,0
2017-10-21T02:51:25.491Z,0
2017-10-21T02:52:35.955Z,0
2017-10-21T02:53:46.466Z,0
2017-10-21T02:54:56.931Z,0
2017-10-21T02:56:07.477Z,0
2017-10-21T02:57:17.916Z,0
2017-10-21T02:58:28.412Z,0
2017-10-21T02:59:38.873Z,0
2017-10-21T03:00:49.034Z,0
2017-10-21T03:01:59.761Z,0
2017-10-21T03:03:10.299Z,0
2017-10-21T03:04:20.754Z,0
2017-10-21T03:05:31.228Z,0
2017-10-21T03:06:41.699Z,0
2017-10-21T03:07:52.172Z,0
2017-10-21T03:09:02.621Z,0
2017-10-21T03:10:13.092Z,0
2017-10-21T03:11:23.547Z,0
2017-10-21T03:12:34.237Z,0
2017-10-21T03:13:44.692Z,0
2017-10-21T03:14:55.133Z,0
2017-10-21T03:16:05.814Z,0
2017-10-21T03:17:15.970Z,0
2017-10-21T03:18:26.452Z,0
2017-10-21T03:19:36.881Z,0
2017-10-21T03:20:47.335Z,0
2017-10-21T03:21:57.916Z,0
2017-10-21T03:23:08.529Z,0
2017-10-21T03:24:18.968Z,0
2017-10-21T03:25:29.501Z,0
2017-10-21T03:26:40.045Z,0
2017-10-21T03:27:50.176Z,0
2017-10-21T03:29:00.617Z,0
2017-10-21T03:30:11.108Z,0
2017-10-21T03:31:21.580Z,0
2017-10-21T03:32:32.072Z,0
2017-10-21T03:33:42.521Z,0
2017-10-21T03:34:52.972Z,0
2017-10-21T03:36:03.430Z,0
2017-10-21T03:37:13.923Z,0
2017-10-21T03:38:24.380Z,0
2017-10-21T03:39:35.029Z,0
2017-10-21T03:40:45.546Z,0
2017-10-21T03:41:56.066Z,0
2017-10-21T03:43:06.550Z,0
2017-10-21T03:44:17.038Z,0
2017-10-21T03:45:27.480Z,0
2017-10-21T03:46:38.157Z,0
2017-10-21T03:47:48.578Z,0
2017-10-21T03:48:59.038Z,0
2017-10-21T03:50:09.489Z,0
2017-10-21T03:51:19.999Z,0
2017-10-21T03:52:30.441Z,0
2017-10-21T03:53:40.928Z,0
2017-10-21T03:54:51.049Z,0
2017-10-21T03:56:01.528Z,0
2017-10-21T03:57:12.066Z,0
2017-10-21T03:58:22.521Z,0
2017-10-21T03:59:33.039Z,0
2017-10-21T04:00:43.482Z,0
2017-10-21T04:01:53.976Z,0
2017-10-21T04:03:04.431Z,0
2017-10-21T04:04:14.899Z,0
2017-10-21T04:05:25.020Z,0
2017-10-21T04:06:35.138Z,0
2017-10-21T04:07:45.589Z,0
2017-10-21T04:08:56.037Z,0
2017-10-21T04:10:06.585Z,0
2017-10-21T04:11:17.031Z,0
2017-10-21T04:12:27.496Z,0
2017-10-21T04:13:37.937Z,0
2017-10-21T04:14:48.108Z,0
2017-10-21T04:15:58.583Z,0
2017-10-21T04:17:09.051Z,0
2017-10-21T04:18:19.489Z,0
2017-10-21T04:19:29.992Z,0
2017-10-21T04:20:40.443Z,0
2017-10-21T04:21:50.905Z,0
2017-10-21T04:23:01.378Z,0
2017-10-21T04:24:11.844Z,0
2017-10-21T04:25:22.323Z,0
2017-10-21T04:26:32.494Z,0
2017-10-21T04:27:42.975Z,0
2017-10-21T04:28:53.459Z,0
2017-10-21T04:30:03.938Z,0
2017-10-21T04:31:14.103Z,0
2017-10-21T04:32:24.622Z,0
2017-10-21T04:33:35.074Z,0
2017-10-21T04:34:45.545Z,0
2017-10-21T04:35:56.033Z,0
2017-10-21T04:37:06.558Z,0
2017-10-21T04:38:17.015Z,0
2017-10-21T04:39:27.528Z,0
2017-10-21T04:40:38.012Z,0
2017-10-21T04:41:48.490Z,0
2017-10-21T04:42:59.177Z,0
2017-10-21T04:44:09.655Z,0
2017-10-21T04:45:20.179Z,0
2017-10-21T04:46:30.632Z,0
2017-10-21T04:47:41.082Z,0
2017-10-21T04:48:51.118Z,0
2017-10-21T04:50:01.593Z,0
2017-10-21T04:51:12.157Z,0
2017-10-21T04:52:22.387Z,0
2017-10-21T04:53:32.843Z,0
2017-10-21T04:54:43.279Z,0
2017-10-21T04:55:53.726Z,0
2017-10-21T04:57:03.868Z,0
2017-10-21T04:58:14.579Z,0
2017-10-21T04:59:25.131Z,0
2017-10-21T05:00:35.599Z,0
2017-10-21T05:01:46.066Z,0
2017-10-21T05:02:56.510Z,0
2017-10-21T05:04:06.975Z,0
2017-10-21T05:05:17.444Z,0
2017-10-21T05:06:27.887Z,0
2017-10-21T05:07:38.049Z,0
2017-10-21T05:08:49.520Z,0
2017-10-21T05:09:59.991Z,0
2017-10-21T05:11:10.486Z,0
2017-10-21T05:12:20.966Z,0
2017-10-21T05:13:31.464Z,0
2017-10-21T05:14:41.939Z,0
2017-10-21T05:15:52.403Z,0
2017-10-21T05:17:02.835Z,0
2017-10-21T05:18:13.017Z,0
2017-10-21T05:19:23.518Z,4
2017-10-21T05:20:33.996Z,0
2017-10-21T05:21:44.437Z,4
2017-10-21T05:22:54.900Z,0
2017-10-21T05:24:05.339Z,4
2017-10-21T05:25:15.803Z,4
2017-10-21T05:26:26.251Z,8
2017-10-21T05:27:36.738Z,8
2017-10-21T05:28:47.213Z,8
2017-10-21T05:29:57.696Z,12
2017-10-21T05:31:08.161Z,12
2017-10-21T05:32:18.643Z,20
2017-10-21T05:33:29.121Z,20
2017-10-21T05:34:39.568Z,24
2017-10-21T05:35:50.020Z,28
2017-10-21T05:37:00.527Z,36
2017-10-21T05:38:10.977Z,44
2017-10-21T05:39:21.524Z,56
2017-10-21T05:40:31.994Z,68
2017-10-21T05:41:42.509Z,80
2017-10-21T05:42:52.996Z,92
2017-10-21T05:44:03.157Z,104
2017-10-21T05:45:13.596Z,112
2017-10-21T05:46:24.067Z,108
2017-10-21T05:47:34.656Z,112
2017-10-21T05:48:45.168Z,120
2017-10-21T05:49:55.327Z,128
2017-10-21T05:51:05.566Z,128
2017-10-21T05:52:16.011Z,140
2017-10-21T05:53:26.506Z,140
2017-10-21T05:54:36.964Z,148
2017-10-21T05:55:47.514Z,160
2017-10-21T05:56:57.982Z,172
2017-10-21T05:58:08.449Z,188
2017-10-21T05:59:18.895Z,192
2017-10-21T06:00:29.384Z,200
2017-10-21T06:01:40.875Z,212
2017-10-21T06:02:51.368Z,216
2017-10-21T06:04:02.034Z,220
2017-10-21T06:05:12.563Z,224
2017-10-21T06:06:23.043Z,232
2017-10-21T06:07:33.506Z,236
2017-10-21T06:08:43.965Z,244
2017-10-21T06:09:54.464Z,252
2017-10-21T06:11:04.946Z,264
2017-10-21T06:12:15.462Z,280
2017-10-21T06:13:26.031Z,296
2017-10-21T06:14:36.622Z,316
2017-10-21T06:15:47.131Z,340
2017-10-21T06:16:57.594Z,352
2017-10-21T06:18:08.118Z,364
2017-10-21T06:19:18.621Z,372
2017-10-21T06:20:29.141Z,384
2017-10-21T06:21:39.607Z,396
2017-10-21T06:22:50.141Z,408
2017-10-21T06:24:00.649Z,424
2017-10-21T06:25:11.120Z,436
2017-10-21T06:26:21.610Z,436
2017-10-21T06:27:32.067Z,440
2017-10-21T06:28:42.528Z,464
2017-10-21T06:29:52.992Z,492
2017-10-21T06:31:03.565Z,532
2017-10-21T06:32:14.139Z,572
2017-10-21T06:33:24.644Z,588
2017-10-21T06:34:34.771Z,600
2017-10-21T06:35:45.318Z,608
2017-10-21T06:36:55.908Z,616
2017-10-21T06:38:06.376Z,636
2017-10-21T06:39:17.003Z,676
2017-10-21T06:40:27.460Z,692
2017-10-21T06:41:37.918Z,684
2017-10-21T06:42:48.550Z,688
2017-10-21T06:43:59.214Z,712
2017-10-21T06:45:09.666Z,760
2017-10-21T06:46:20.334Z,788
2017-10-21T06:47:30.921Z,820
2017-10-21T06:48:41.384Z,856
2017-10-21T06:49:51.916Z,912
2017-10-21T06:51:02.431Z,968
2017-10-21T06:52:12.888Z,1012
2017-10-21T06:53:23.321Z,1028
2017-10-21T06:54:33.911Z,1028
2017-10-21T06:55:44.381Z,1036
2017-10-21T06:56:54.849Z,1048
2017-10-21T06:58:05.355Z,1052
2017-10-21T06:59:15.833Z,1060
2017-10-21T07:00:26.281Z,1084
2017-10-21T07:01:36.738Z,1136
2017-10-21T07:02:47.193Z,1160
2017-10-21T07:03:57.697Z,1176
2017-10-21T07:05:08.170Z,1208
2017-10-21T07:06:18.684Z,1268
2017-10-21T07:07:29.786Z,1340
2017-10-21T07:08:40.250Z,1420
2017-10-21T07:09:50.780Z,1500
2017-10-21T07:11:01.300Z,1596
2017-10-21T07:12:11.788Z,1724
2017-10-21T07:13:22.046Z,1884
2017-10-21T07:14:32.560Z,2056
2017-10-21T07:15:43.154Z,2184
2017-10-21T07:16:53.610Z,2300
2017-10-21T07:18:04.269Z,2480
2017-10-21T07:19:14.745Z,2676
2017-10-21T07:20:25.206Z,2908
2017-10-21T07:21:35.760Z,3052
2017-10-21T07:22:46.348Z,3008
2017-10-21T07:23:56.806Z,2824
2017-10-21T07:25:07.271Z,2644
2017-10-21T07:26:17.796Z,2524
2017-10-21T07:27:28.248Z,2416
2017-10-21T07:28:38.706Z,2272
2017-10-21T07:29:49.279Z,2112
2017-10-21T07:30:59.767Z,1976
2017-10-21T07:32:10.252Z,1832
2017-10-21T07:33:20.724Z,1768
2017-10-21T07:34:31.210Z,1804
2017-10-21T07:35:41.794Z,1904
2017-10-21T07:36:52.317Z,2012
2017-10-21T07:38:02.820Z,2124
2017-10-21T07:39:13.378Z,2240
2017-10-21T07:40:23.841Z,2324
2017-10-21T07:41:33.980Z,2352
2017-10-21T07:42:44.080Z,2320
2017-10-21T07:43:54.553Z,2232
2017-10-21T07:45:05.031Z,2104
2017-10-21T07:46:15.484Z,1992
2017-10-21T07:47:25.966Z,1960
2017-10-21T07:48:36.485Z,2000
2017-10-21T07:49:46.971Z,2008
2017-10-21T07:50:57.138Z,1952
2017-10-21T07:52:07.638Z,1968
2017-10-21T07:53:18.111Z,2112
2017-10-21T07:54:28.178Z,2356
2017-10-21T07:55:38.657Z,2632
2017-10-21T07:56:49.110Z,2856
2017-10-21T07:57:59.295Z,2936
2017-10-21T07:59:09.170Z,2932
2017-10-21T08:00:19.664Z,2848
2017-10-21T08:01:30.301Z,2720
2017-10-21T08:02:40.842Z,2704
2017-10-21T08:03:51.346Z,2804
2017-10-21T08:05:01.855Z,3260
2017-10-21T08:06:12.361Z,3968
2017-10-21T08:07:22.854Z,4372
2017-10-21T08:08:32.611Z,4184
2017-10-21T08:09:43.083Z,3532
2017-10-21T08:10:53.580Z,2860
2017-10-21T08:12:04.123Z,2524
2017-10-21T08:13:14.603Z,2616
2017-10-21T08:14:25.134Z,2756
2017-10-21T08:15:35.618Z,2728
2017-10-21T08:16:46.350Z,2708
2017-10-21T08:17:56.790Z,2772
2017-10-21T08:19:07.323Z,2920
2017-10-21T08:20:17.837Z,3160
2017-10-21T08:21:28.002Z,3480
2017-10-21T08:22:38.471Z,3904
2017-10-21T08:23:48.951Z,4332
2017-10-21T08:24:59.419Z,4724
2017-10-21T08:26:09.885Z,5044
2017-10-21T08:27:20.584Z,5080
2017-10-21T08:28:31.068Z,5072
2017-10-21T08:29:41.607Z,4972
2017-10-21T08:30:51.770Z,4748
2017-10-21T08:32:02.231Z,4556
2017-10-21T08:33:12.753Z,4484
2017-10-21T08:34:23.211Z,4484
2017-10-21T08:35:33.803Z,4484
2017-10-21T08:36:44.271Z,4272
2017-10-21T08:37:54.779Z,3940
2017-10-21T08:39:05.266Z,3680
2017-10-21T08:40:15.817Z,3540
2017-10-21T08:41:26.298Z,3396
2017-10-21T08:42:36.816Z,3340
2017-10-21T08:43:47.324Z,3300
2017-10-21T08:44:57.518Z,3216
2017-10-21T08:46:07.978Z,3148
2017-10-21T08:47:18.548Z,3120
2017-10-21T08:48:29.175Z,3144
2017-10-21T08:49:39.690Z,3256
2017-10-21T08:50:50.347Z,3448
2017-10-21T08:52:00.863Z,3516
2017-10-21T08:53:11.338Z,3528
2017-10-21T08:54:21.976Z,3632
2017-10-21T08:55:32.490Z,3720
2017-10-21T08:56:43.033Z,3680
2017-10-21T08:57:53.186Z,3660
2017-10-21T08:59:03.674Z,3768
2017-10-21T09:00:14.150Z,3980
2017-10-21T09:01:24.293Z,4200
2017-10-21T09:02:34.757Z,4388
2017-10-21T09:03:45.233Z,4512
2017-10-21T09:04:55.700Z,4628
2017-10-21T09:06:06.287Z,4796
2017-10-21T09:07:16.531Z,4968
2017-10-21T09:08:27.045Z,5504
2017-10-21T09:09:37.524Z,6328
2017-10-21T09:10:47.980Z,7108
2017-10-21T09:11:58.486Z,7640
2017-10-21T09:13:08.943Z,7636
2017-10-21T09:14:19.469Z,7416
2017-10-21T09:15:30.166Z,7440
2017-10-21T09:16:40.654Z,8084
2017-10-21T09:17:51.372Z,9104
2017-10-21T09:19:01.846Z,10028
2017-10-21T09:20:12.349Z,10540
2017-10-21T09:21:22.969Z,10712
2017-10-21T09:22:33.479Z,10208
2017-10-21T09:23:43.979Z,9028
2017-10-21T09:24:54.265Z,7836
2017-10-21T09:26:04.778Z,7056
2017-10-21T09:27:15.330Z,6684
2017-10-21T09:28:25.816Z,6684
2017-10-21T09:29:36.130Z,6804
2017-10-21T09:30:46.647Z,6820
2017-10-21T09:31:57.153Z,6752
2017-10-21T09:33:07.331Z,6472
2017-10-21T09:34:17.796Z,6544
2017-10-21T09:35:28.283Z,6800
2017-10-21T09:36:38.788Z,6852
2017-10-21T09:37:49.343Z,6916
2017-10-21T09:38:59.483Z,6980
2017-10-21T09:40:09.973Z,7024
2017-10-21T09:41:20.583Z,7304
2017-10-21T09:42:31.278Z,7804
2017-10-21T09:43:41.806Z,8032
2017-10-21T09:44:52.272Z,8132
2017-10-21T09:46:02.752Z,8068
2017-10-21T09:47:13.296Z,8344
2017-10-21T09:48:23.815Z,9160
2017-10-21T09:49:34.384Z,10244
2017-10-21T09:50:44.899Z,11084
2017-10-21T09:51:55.405Z,11672
2017-10-21T09:53:05.884Z,12944
2017-10-21T09:54:16.353Z,15680
2017-10-21T09:55:26.830Z,16896
2017-10-21T09:56:37.429Z,14936
2017-10-21T09:57:47.967Z,13420
2017-10-21T09:58:58.450Z,12132
2017-10-21T10:00:08.997Z,11336
2017-10-21T10:01:19.513Z,11060
2017-10-21T10:02:29.987Z,11108
2017-10-21T10:03:40.548Z,10940
2017-10-21T10:04:51.039Z,10640
2017-10-21T10:06:01.569Z,10720
2017-10-21T10:07:12.339Z,11088
2017-10-21T10:08:22.872Z,11768
2017-10-21T10:09:34.334Z,12908
2017-10-21T10:10:44.867Z,14244
2017-10-21T10:11:55.529Z,14848
2017-10-21T10:13:06.046Z,14440
2017-10-21T10:14:16.576Z,14032
2017-10-21T10:15:27.075Z,14408
2017-10-21T10:16:37.624Z,14332
2017-10-21T10:17:48.146Z,14376
2017-10-21T10:18:58.615Z,15456
2017-10-21T10:20:09.086Z,15520
2017-10-21T10:21:19.666Z,15488
2017-10-21T10:22:30.402Z,16416
2017-10-21T10:23:40.879Z,18336
2017-10-21T10:24:51.621Z,20128
2017-10-21T10:26:02.161Z,21856
2017-10-21T10:27:12.661Z,22272
2017-10-21T10:28:23.208Z,22848
2017-10-21T10:29:33.717Z,23360
2017-10-21T10:30:44.192Z,23200
2017-10-21T10:31:54.701Z,22688
2017-10-21T10:33:05.298Z,22880
2017-10-21T10:34:15.842Z,38560
2017-10-21T10:35:26.359Z,33504
2017-10-21T10:36:36.844Z,50560
2017-10-21T10:37:47.325Z,36256
2017-10-21T10:38:57.808Z,37120
2017-10-21T10:40:08.271Z,34368
2017-10-21T10:41:18.884Z,26144
2017-10-21T10:42:28.975Z,22368
2017-10-21T10:43:39.462Z,26080
2017-10-21T10:44:49.981Z,53408
2017-10-21T10:46:00.649Z,34112
2017-10-21T10:47:11.132Z,65056
2017-10-21T10:48:21.840Z,54784
2017-10-21T10:49:32.356Z,68288
2017-10-21T10:50:42.748Z,50240
2017-10-21T10:51:53.282Z,76352
2017-10-21T10:53:03.327Z,72000
2017-10-21T10:54:13.811Z,66624
2017-10-21T10:55:23.977Z,73088
2017-10-21T10:56:34.488Z,70144
2017-10-21T10:57:45.042Z,65344
2017-10-21T10:58:55.730Z,75392
2017-10-21T11:00:06.474Z,44096
2017-10-21T11:01:17.093Z,62976
2017-10-21T11:02:27.604Z,66528
2017-10-21T11:03:37.862Z,60096
2017-10-21T11:04:48.352Z,55904
2017-10-21T11:05:58.446Z,54368
2017-10-21T11:07:08.979Z,47072
2017-10-21T11:08:19.475Z,48448
2017-10-21T11:09:30.240Z,50496
2017-10-21T11:10:40.811Z,60032
2017-10-21T11:11:51.538Z,58784
2017-10-21T11:13:01.604Z,53024
2017-10-21T11:14:12.117Z,58720
2017-10-21T11:15:22.793Z,64544
2017-10-21T11:16:33.299Z,63264
2017-10-21T11:17:44.213Z,63680
2017-10-21T11:18:54.890Z,65408
2017-10-21T11:20:05.168Z,59392
2017-10-21T11:21:15.763Z,59296
2017-10-21T11:22:26.422Z,56032
2017-10-21T11:23:36.935Z,52736
2017-10-21T11:24:47.526Z,67392
2017-10-21T11:25:58.019Z,52448
2017-10-21T11:27:08.174Z,50464
2017-10-21T11:28:18.784Z,66528
2017-10-21T11:29:29.349Z,51264
2017-10-21T11:30:39.941Z,53024
2017-10-21T11:31:50.443Z,65696
2017-10-21T11:33:00.997Z,49952
2017-10-21T11:34:11.527Z,62848
2017-10-21T11:35:22.049Z,56160
2017-10-21T11:36:33.011Z,52288
2017-10-21T11:37:43.616Z,63296
2017-10-21T11:38:54.418Z,22208
2017-10-21T11:40:04.934Z,65280
2017-10-21T11:41:15.532Z,55968
2017-10-21T11:42:26.026Z,32320
2017-10-21T11:43:36.591Z,21120
2017-10-21T11:44:47.107Z,18944
2017-10-21T11:45:57.690Z,18464
2017-10-21T11:47:08.188Z,18560
2017-10-21T11:48:18.956Z,17920
2017-10-21T11:49:29.465Z,16736
2017-10-21T11:50:40.936Z,16672
2017-10-21T11:51:51.566Z,13912
2017-10-21T11:53:02.101Z,12904
2017-10-21T11:54:12.672Z,12004
2017-10-21T11:55:23.177Z,11240
2017-10-21T11:56:33.707Z,10448
2017-10-21T11:57:44.275Z,9540
2017-10-21T11:58:54.849Z,8568
2017-10-21T12:00:05.349Z,7868
2017-10-21T12:01:16.434Z,7304
2017-10-21T12:02:26.990Z,6712
2017-10-21T12:03:37.470Z,6092
2017-10-21T12:04:47.614Z,5716
2017-10-21T12:05:58.239Z,5756
2017-10-21T12:07:08.815Z,6088
2017-10-21T12:08:19.329Z,6760
2017-10-21T12:09:29.833Z,7596
2017-10-21T12:10:40.542Z,8196
2017-10-21T12:11:51.255Z,8752
2017-10-21T12:13:01.770Z,9432
2017-10-21T12:14:12.760Z,10212
2017-10-21T12:15:23.271Z,11336
2017-10-21T12:16:33.779Z,12516
2017-10-21T12:17:44.018Z,13592
2017-10-21T12:18:54.600Z,13088
2017-10-21T12:20:05.150Z,12412
2017-10-21T12:21:15.692Z,11704
2017-10-21T12:22:26.211Z,10568
2017-10-21T12:23:36.936Z,9228
2017-10-21T12:24:47.437Z,8020
2017-10-21T12:25:57.960Z,6908
2017-10-21T12:27:08.439Z,5876
2017-10-21T12:28:19.215Z,5088
2017-10-21T12:29:29.871Z,4496
2017-10-21T12:30:40.447Z,4180
2017-10-21T12:31:50.933Z,4172
2017-10-21T12:33:01.693Z,4300
2017-10-21T12:34:12.329Z,4468
2017-10-21T12:35:22.834Z,4632
2017-10-21T12:36:32.907Z,4816
2017-10-21T12:37:43.206Z,5008
2017-10-21T12:38:53.705Z,5276
2017-10-21T12:40:05.315Z,5616
2017-10-21T12:41:15.804Z,5948
2017-10-21T12:42:26.361Z,6192
2017-10-21T12:43:36.882Z,6432
2017-10-21T12:44:47.368Z,6664
2017-10-21T12:45:57.969Z,6904
2017-10-21T12:47:08.512Z,7128
2017-10-21T12:48:18.992Z,7156
2017-10-21T12:49:29.527Z,7044
2017-10-21T12:50:40.039Z,6760
2017-10-21T12:51:50.537Z,6336
2017-10-21T12:53:01.002Z,5728
2017-10-21T12:54:11.624Z,4972
2017-10-21T12:55:22.172Z,4232
2017-10-21T12:56:32.661Z,3644
2017-10-21T12:57:43.274Z,3276
2017-10-21T12:58:53.795Z,3128
2017-10-21T13:00:04.290Z,3160
2017-10-21T13:01:14.782Z,3284
2017-10-21T13:02:25.349Z,3348
2017-10-21T13:03:35.843Z,3356
2017-10-21T13:04:46.387Z,3376
2017-10-21T13:05:57.167Z,3472
2017-10-21T13:07:07.697Z,3612
2017-10-21T13:08:18.205Z,3728
2017-10-21T13:09:28.743Z,3764
2017-10-21T13:10:39.211Z,3764
2017-10-21T13:11:49.736Z,3724
2017-10-21T13:13:00.239Z,3728
2017-10-21T13:14:10.740Z,3928
2017-10-21T13:15:21.452Z,4268
2017-10-21T13:16:32.005Z,4632
2017-10-21T13:17:42.166Z,5088
2017-10-21T13:18:52.702Z,5852
2017-10-21T13:20:03.237Z,6468
2017-10-21T13:21:13.793Z,6684
2017-10-21T13:22:24.259Z,6816
2017-10-21T13:23:34.763Z,6544
2017-10-21T13:24:45.259Z,5896
2017-10-21T13:25:55.497Z,5360
2017-10-21T13:27:06.023Z,5096
2017-10-21T13:28:16.515Z,4904
2017-10-21T13:29:27.298Z,4632
2017-10-21T13:30:37.832Z,4372
2017-10-21T13:31:48.789Z,4236
2017-10-21T13:32:59.312Z,4284
2017-10-21T13:34:09.951Z,4508
2017-10-21T13:35:20.456Z,4704
2017-10-21T13:36:31.021Z,4752
2017-10-21T13:37:41.580Z,4628
2017-10-21T13:38:53.077Z,4404
2017-10-21T13:40:03.656Z,4148
2017-10-21T13:41:14.154Z,3856
2017-10-21T13:42:24.685Z,3528
2017-10-21T13:43:35.201Z,3272
2017-10-21T13:44:45.821Z,3108
2017-10-21T13:45:56.358Z,3020
2017-10-21T13:47:06.860Z,2980
2017-10-21T13:48:17.480Z,3048
2017-10-21T13:49:27.987Z,3012
2017-10-21T13:50:38.481Z,2780
2017-10-21T13:51:49.079Z,2468
2017-10-21T13:52:59.590Z,2328
2017-10-21T13:54:10.146Z,2272
2017-10-21T13:55:20.597Z,2224
2017-10-21T13:56:31.176Z,2208
2017-10-21T13:57:41.464Z,2412
2017-10-21T13:58:51.987Z,2808
2017-10-21T14:00:02.539Z,3192
2017-10-21T14:01:13.020Z,3268
2017-10-21T14:02:23.835Z,2996
2017-10-21T14:03:34.276Z,2656
2017-10-21T14:04:44.769Z,2256
2017-10-21T14:05:55.278Z,1904
2017-10-21T14:07:05.770Z,1620
2017-10-21T14:08:16.497Z,1444
2017-10-21T14:09:26.929Z,1408
2017-10-21T14:10:37.163Z,1480
2017-10-21T14:11:47.840Z,1664
2017-10-21T14:12:58.357Z,1928
2017-10-21T14:14:08.888Z,2236
2017-10-21T14:15:19.402Z,2560
2017-10-21T14:16:29.904Z,2816
2017-10-21T14:17:40.412Z,3032
2017-10-21T14:18:50.902Z,3132
2017-10-21T14:20:01.472Z,3076
2017-10-21T14:21:12.166Z,3104
2017-10-21T14:22:22.629Z,3024
2017-10-21T14:23:33.193Z,2572
2017-10-21T14:24:44.004Z,2208
2017-10-21T14:25:54.598Z,1968
2017-10-21T14:27:05.192Z,1708
2017-10-21T14:28:15.723Z,1564
2017-10-21T14:29:26.357Z,1640
2017-10-21T14:30:36.831Z,1816
2017-10-21T14:31:47.331Z,1920
2017-10-21T14:32:57.833Z,2056
2017-10-21T14:34:08.327Z,2168
2017-10-21T14:35:18.851Z,2076
2017-10-21T14:36:29.370Z,1892
2017-10-21T14:37:39.822Z,1776
2017-10-21T14:38:50.308Z,1756
2017-10-21T14:40:00.820Z,1832
2017-10-21T14:41:10.760Z,2004
2017-10-21T14:42:21.258Z,2184
2017-10-21T14:43:31.957Z,2200
2017-10-21T14:44:42.151Z,2112
2017-10-21T14:45:52.757Z,1868
2017-10-21T14:47:03.345Z,1564
2017-10-21T14:48:13.833Z,1404
2017-10-21T14:49:24.400Z,1376
2017-10-21T14:50:34.884Z,1468
2017-10-21T14:51:45.215Z,1548
2017-10-21T14:52:55.692Z,1528
2017-10-21T14:54:05.885Z,1540
2017-10-21T14:55:16.550Z,1568
2017-10-21T14:56:27.047Z,1568
2017-10-21T14:57:37.866Z,1548
2017-10-21T14:58:48.378Z,1544
2017-10-21T14:59:58.877Z,1536
2017-10-21T15:01:09.594Z,1572
2017-10-21T15:02:20.146Z,1688
2017-10-21T15:03:30.698Z,1724
2017-10-21T15:04:41.181Z,1592
2017-10-21T15:05:51.839Z,1388
2017-10-21T15:07:02.703Z,1136
2017-10-21T15:08:13.435Z,916
2017-10-21T15:09:24.322Z,796
2017-10-21T15:10:34.999Z,772
2017-10-21T15:11:45.666Z,792
2017-10-21T15:12:56.174Z,792
2017-10-21T15:14:06.765Z,792
2017-10-21T15:15:17.504Z,824
2017-10-21T15:16:28.290Z,880
2017-10-21T15:17:38.915Z,948
2017-10-21T15:18:49.505Z,956
2017-10-21T15:20:00.022Z,888
2017-10-21T15:21:10.550Z,808
2017-10-21T15:22:21.901Z,752
2017-10-21T15:23:32.425Z,712
2017-10-21T15:24:42.969Z,676
2017-10-21T15:25:53.044Z,628
2017-10-21T15:27:03.692Z,568
2017-10-21T15:28:14.525Z,520
2017-10-21T15:29:25.046Z,504
2017-10-21T15:30:35.555Z,524
2017-10-21T15:31:46.063Z,560
2017-10-21T15:32:56.538Z,612
2017-10-21T15:34:07.303Z,656
2017-10-21T15:35:17.864Z,644
2017-10-21T15:36:28.326Z,556
2017-10-21T15:37:38.818Z,480
2017-10-21T15:38:49.335Z,480
2017-10-21T15:40:00.140Z,552
2017-10-21T15:41:10.507Z,576
2017-10-21T15:42:21.133Z,496
2017-10-21T15:43:31.694Z,400
2017-10-21T15:44:42.189Z,372
2017-10-21T15:45:52.668Z,384
2017-10-21T15:47:03.144Z,364
2017-10-21T15:48:13.642Z,328
2017-10-21T15:49:24.970Z,300
2017-10-21T15:50:35.136Z,264
2017-10-21T15:51:45.635Z,220
2017-10-21T15:52:56.036Z,180
2017-10-21T15:54:06.633Z,156
2017-10-21T15:55:17.134Z,144
2017-10-21T15:56:27.724Z,124
2017-10-21T15:57:38.241Z,112
2017-10-21T15:58:48.742Z,104
2017-10-21T15:59:59.350Z,96
2017-10-21T16:01:10.089Z,88
2017-10-21T16:02:20.780Z,88
2017-10-21T16:03:31.290Z,84
2017-10-21T16:04:41.466Z,76
2017-10-21T16:05:51.736Z,72
2017-10-21T16:07:02.210Z,60
2017-10-21T16:08:12.760Z,52
2017-10-21T16:09:23.266Z,48
2017-10-21T16:10:33.809Z,48
2017-10-21T16:11:44.360Z,44
2017-10-21T16:12:54.875Z,40